Time;durP1;ratioP1;P1;durP2;ratioP2;P2;SDS_P1;SDS_P2;PMS_P1;PMS_P2;Temp;Humidity;BMP_temperature;BMP_pressure;BME280_temperature;BME280_humidity;BME280_pressure;Samples;Min_cycle;Max_cycle;Signal;HPM_P1;HPM_P2
2024/01/15 00:05:20;;;;;;;293.65;274.65;;;1.20;99.90;;;;;;12367450;28;20490;-35
2024/01/15 00:11:22;;;;;;;296.10;277.20;;;1.20;99.90;;;;;;12372943;28;20188;-35
2024/01/15 00:17:24;;;;;;;284.30;265.42;;;1.20;99.90;;;;;;12370898;28;20054;-35
2024/01/15 00:23:25;;;;;;;286.77;268.00;;;1.20;99.90;;;;;;12358430;28;20070;-36
2024/01/15 00:29:27;;;;;;;262.58;245.18;;;1.30;99.90;;;;;;12356616;28;20056;-34
2024/01/15 00:35:29;;;;;;;252.23;235.70;;;1.30;99.90;;;;;;12370306;28;20077;-35
2024/01/15 00:41:31;;;;;;;255.55;238.68;;;1.30;99.90;;;;;;12358350;28;20183;-35
2024/01/15 00:47:34;;;;;;;232.88;217.57;;;1.30;99.90;;;;;;12414911;28;20062;-35
2024/01/15 00:53:36;;;;;;;240.43;224.60;;;1.30;99.90;;;;;;12379066;28;20507;-36
2024/01/15 00:59:39;;;;;;;237.23;222.15;;;1.20;99.90;;;;;;12349741;28;20042;-35
2024/01/15 01:05:40;;;;;;;206.77;192.80;;;1.20;99.90;;;;;;12357264;28;20062;-36
2024/01/15 01:11:42;;;;;;;195.15;182.00;;;1.30;99.90;;;;;;12344478;28;20058;-35
2024/01/15 01:17:44;;;;;;;174.80;162.98;;;1.30;99.90;;;;;;12449332;28;20517;-35
2024/01/15 01:23:46;;;;;;;156.32;145.93;;;1.40;99.90;;;;;;12443143;28;20052;-35
2024/01/15 01:29:48;;;;;;;151.00;140.90;;;1.40;99.90;;;;;;12354120;28;20042;-36
2024/01/15 01:35:50;;;;;;;144.75;134.88;;;1.40;99.90;;;;;;12403706;28;20066;-35
2024/01/15 01:41:52;;;;;;;134.25;125.53;;;1.50;99.90;;;;;;12370037;28;20040;-36
2024/01/15 01:47:54;;;;;;;139.15;130.00;;;1.50;99.90;;;;;;12421991;28;20040;-36
2024/01/15 01:53:56;;;;;;;123.75;115.88;;;1.50;99.90;;;;;;12419475;28;20050;-35
2024/01/15 01:59:58;;;;;;;118.35;110.57;;;1.60;99.90;;;;;;12370029;28;20478;-35
2024/01/15 02:06:01;;;;;;;118.55;110.95;;;1.60;99.90;;;;;;12371206;28;20082;-36
2024/01/15 02:12:03;;;;;;;132.73;123.82;;;1.60;99.90;;;;;;12362713;28;20099;-36
2024/01/15 02:18:07;;;;;;;122.55;114.75;;;1.50;99.90;;;;;;12426814;28;20396;-35
2024/01/15 02:24:10;;;;;;;118.40;110.90;;;1.50;99.90;;;;;;12462466;28;20044;-36
2024/01/15 02:30:12;;;;;;;112.45;105.50;;;1.50;99.90;;;;;;12369306;28;21097;-35
2024/01/15 02:36:16;;;;;;;114.47;107.18;;;1.50;99.90;;;;;;12372476;28;20051;-36
2024/01/15 02:42:18;;;;;;;124.47;116.82;;;1.50;99.90;;;;;;12400966;28;20104;-35
2024/01/15 02:48:20;;;;;;;122.35;114.47;;;1.50;99.90;;;;;;12369040;28;20059;-35
2024/01/15 02:54:22;;;;;;;118.05;110.80;;;1.50;99.90;;;;;;12376460;28;20137;-36
2024/01/15 03:00:23;;;;;;;120.63;112.95;;;1.60;99.90;;;;;;12378048;28;20085;-36
2024/01/15 03:06:25;;;;;;;117.88;110.35;;;1.50;99.90;;;;;;12383246;28;20141;-36
2024/01/15 03:12:27;;;;;;;119.18;111.10;;;1.50;99.90;;;;;;12352044;28;20557;-36
2024/01/15 03:18:29;;;;;;;119.95;111.68;;;1.40;99.90;;;;;;12346940;28;20051;-36
2024/01/15 03:24:32;;;;;;;114.35;107.00;;;1.40;99.90;;;;;;12399239;28;20073;-36
2024/01/15 03:30:33;;;;;;;142.82;133.52;;;1.40;99.90;;;;;;12371630;28;20050;-35
2024/01/15 03:36:35;;;;;;;159.43;148.73;;;1.40;99.90;;;;;;12371975;28;20042;-34
2024/01/15 03:42:37;;;;;;;145.55;135.98;;;1.30;99.90;;;;;;12375349;28;20047;-35
2024/01/15 03:48:39;;;;;;;143.75;134.38;;;1.30;99.90;;;;;;12339191;28;20118;-35
2024/01/15 03:54:41;;;;;;;126.97;118.47;;;1.40;99.90;;;;;;12371798;28;20042;-36
2024/01/15 04:00:43;;;;;;;126.85;118.05;;;1.40;99.90;;;;;;12372875;28;20069;-36
2024/01/15 04:06:45;;;;;;;124.18;115.75;;;1.40;99.90;;;;;;12371063;28;20093;-36
2024/01/15 04:12:48;;;;;;;122.75;114.47;;;1.40;99.90;;;;;;12359342;28;20047;-35
2024/01/15 04:18:49;;;;;;;128.07;119.50;;;1.50;99.90;;;;;;12361634;28;20099;-35
2024/01/15 04:24:52;;;;;;;124.63;116.55;;;1.30;99.90;;;;;;12408106;28;20062;-36
2024/01/15 04:30:54;;;;;;;119.93;111.90;;;1.40;99.90;;;;;;12372286;28;20049;-35
2024/01/15 04:36:56;;;;;;;124.25;115.80;;;1.40;99.90;;;;;;12379024;28;20050;-35
2024/01/15 04:42:57;;;;;;;108.85;101.80;;;1.50;99.90;;;;;;12358602;28;20050;-35
2024/01/15 04:48:59;;;;;;;117.72;109.72;;;1.50;99.90;;;;;;12366804;28;20139;-36
2024/01/15 04:55:01;;;;;;;123.43;115.13;;;1.50;99.90;;;;;;12369352;28;20058;-36
2024/01/15 05:01:03;;;;;;;110.70;102.95;;;1.50;99.90;;;;;;12358777;28;20121;-35
2024/01/15 05:07:05;;;;;;;106.50;98.93;;;1.60;99.90;;;;;;12377932;28;20188;-35
2024/01/15 05:13:07;;;;;;;103.68;96.18;;;1.50;99.90;;;;;;12344272;28;20514;-36
2024/01/15 05:19:09;;;;;;;106.97;99.53;;;1.60;99.90;;;;;;12358415;28;20057;-36
2024/01/15 05:25:11;;;;;;;104.03;96.93;;;1.50;99.90;;;;;;12360784;28;20059;-35
2024/01/15 05:31:13;;;;;;;110.00;102.22;;;1.60;99.90;;;;;;12399079;28;20056;-35
2024/01/15 05:37:15;;;;;;;106.88;99.40;;;1.50;99.90;;;;;;12363480;28;20043;-34
2024/01/15 05:43:17;;;;;;;118.63;110.22;;;1.50;99.90;;;;;;12364924;28;20419;-35
2024/01/15 05:49:19;;;;;;;118.00;109.97;;;1.50;99.90;;;;;;12332806;28;20054;-35
2024/01/15 05:55:21;;;;;;;114.55;106.75;;;1.40;99.90;;;;;;12361917;28;20054;-35
2024/01/15 06:01:23;;;;;;;110.35;102.78;;;1.40;99.90;;;;;;12348758;28;20058;-36
2024/01/15 06:07:25;;;;;;;132.88;123.60;;;1.40;99.90;;;;;;12360862;28;20061;-35
2024/01/15 06:13:27;;;;;;;175.38;163.57;;;1.30;99.90;;;;;;12361444;28;20047;-35
2024/01/15 06:19:28;;;;;;;145.43;135.13;;;1.20;99.90;;;;;;12366464;28;20058;-33
2024/01/15 06:25:31;;;;;;;130.50;121.40;;;1.30;99.90;;;;;;12480892;28;20058;-36
2024/01/15 06:31:33;;;;;;;141.25;131.85;;;1.30;99.90;;;;;;12398114;28;20193;-36
2024/01/15 06:37:35;;;;;;;121.25;112.95;;;1.30;99.90;;;;;;12373894;28;20038;-35
2024/01/15 06:43:37;;;;;;;123.43;114.72;;;1.20;99.90;;;;;;12381158;28;20042;-36
2024/01/15 06:49:38;;;;;;;118.93;110.47;;;1.30;99.90;;;;;;12362038;28;20050;-35
2024/01/15 06:55:40;;;;;;;172.38;160.75;;;1.30;99.90;;;;;;12370427;28;20429;-36
2024/01/15 07:01:42;;;;;;;160.90;149.85;;;1.20;99.90;;;;;;12379953;28;20050;-35
2024/01/15 07:07:44;;;;;;;137.38;128.18;;;1.20;99.90;;;;;;12367209;28;20495;-36
2024/01/15 07:13:46;;;;;;;127.70;119.15;;;1.20;99.90;;;;;;12374421;28;20088;-35
2024/01/15 07:19:48;;;;;;;114.95;107.15;;;1.20;99.90;;;;;;12353948;28;20057;-36
2024/01/15 07:25:50;;;;;;;116.25;108.30;;;1.30;99.90;;;;;;12427493;28;20062;-35
2024/01/15 07:31:52;;;;;;;111.13;103.53;;;1.30;99.90;;;;;;12398929;28;20073;-35
2024/01/15 07:37:54;;;;;;;109.40;102.00;;;1.30;99.90;;;;;;12411235;28;20607;-35
2024/01/15 07:43:56;;;;;;;117.60;109.53;;;1.30;99.90;;;;;;12352993;28;20074;-35
2024/01/15 07:49:58;;;;;;;112.40;104.43;;;1.40;99.90;;;;;;12366499;28;20047;-35
2024/01/15 07:56:06;;;;;;;112.25;104.40;;;1.30;99.90;;;;;;12365568;28;20049;-36
2024/01/15 08:02:08;;;;;;;119.72;111.45;;;1.40;99.90;;;;;;12358573;28;20046;-35
2024/01/15 08:08:10;;;;;;;120.38;112.18;;;1.40;99.90;;;;;;12383951;28;20396;-35
2024/01/15 08:14:13;;;;;;;120.32;112.07;;;1.40;99.90;;;;;;12361097;28;20396;-35
2024/01/15 08:20:16;;;;;;;115.82;107.95;;;1.40;99.90;;;;;;12382553;28;20396;-35
2024/01/15 08:26:18;;;;;;;103.90;96.53;;;1.50;99.90;;;;;;12362570;28;20054;-36
2024/01/15 08:32:19;;;;;;;107.18;99.75;;;1.40;99.90;;;;;;12378155;28;20062;-35
2024/01/15 08:38:22;;;;;;;115.32;107.45;;;1.50;99.90;;;;;;12356588;28;20103;-35
2024/01/15 08:44:23;;;;;;;115.03;107.10;;;1.50;99.90;;;;;;12356597;28;20061;-36
2024/01/15 08:50:25;;;;;;;113.63;105.63;;;1.40;99.90;;;;;;12352310;28;20517;-36
2024/01/15 08:56:27;;;;;;;118.85;110.35;;;1.40;99.90;;;;;;12422003;28;20050;-35
2024/01/15 09:02:29;;;;;;;117.80;109.60;;;1.50;99.90;;;;;;12366207;28;20414;-36
2024/01/15 09:08:31;;;;;;;124.13;115.72;;;1.40;99.90;;;;;;12341038;28;20193;-36
2024/01/15 09:14:34;;;;;;;125.10;116.65;;;1.40;99.90;;;;;;12355192;28;20058;-36
2024/01/15 09:20:38;;;;;;;119.68;111.10;;;1.30;99.90;;;;;;12354657;28;20058;-35
2024/01/15 09:26:40;;;;;;;120.10;111.80;;;1.30;99.90;;;;;;12381957;28;20050;-36
2024/01/15 09:32:42;;;;;;;116.53;108.30;;;1.30;99.90;;;;;;12391150;28;20154;-35
2024/01/15 09:38:44;;;;;;;119.97;111.78;;;1.20;99.90;;;;;;12372885;28;20057;-35
2024/01/15 09:44:46;;;;;;;120.97;112.68;;;1.30;99.90;;;;;;12367462;28;20141;-35
2024/01/15 09:50:50;;;;;;;111.05;103.75;;;1.30;99.90;;;;;;12372494;28;20077;-35
2024/01/15 09:56:52;;;;;;;99.72;92.82;;;1.40;99.90;;;;;;12398556;28;20047;-36
2024/01/15 10:02:54;;;;;;;97.85;91.05;;;1.50;99.90;;;;;;12392337;28;20038;-35
2024/01/15 10:08:58;;;;;;;104.72;97.38;;;1.50;99.90;;;;;;12371463;28;20054;-36
2024/01/15 10:15:00;;;;;;;104.53;97.03;;;1.60;99.90;;;;;;12361466;28;20047;-36
2024/01/15 10:21:03;;;;;;;105.13;97.70;;;1.50;99.90;;;;;;12368195;28;20526;-35
2024/01/15 10:27:06;;;;;;;103.88;95.65;;;1.60;99.90;;;;;;12343689;28;20078;-35
2024/01/15 10:33:08;;;;;;;108.33;100.57;;;1.50;99.90;;;;;;12356677;28;20091;-35
2024/01/15 10:39:13;;;;;;;98.13;91.03;;;1.60;99.90;;;;;;12365603;28;20494;-36
2024/01/15 10:45:15;;;;;;;;;;;1.60;99.90;;;;;;12366323;28;20054;-37
2024/01/15 10:51:18;;;;;;;97.40;90.78;;;1.50;99.90;;;;;;12353399;28;20354;-36
2024/01/15 10:57:22;;;;;;;101.97;95.07;;;1.60;99.90;;;;;;12375551;28;20104;-36
2024/01/15 11:03:24;;;;;;;103.80;96.40;;;1.80;99.90;;;;;;12375975;28;20046;-36
2024/01/15 11:09:26;;;;;;;105.38;97.55;;;1.70;99.90;;;;;;12380501;28;20051;-35
2024/01/15 11:15:29;;;;;;;105.07;97.70;;;1.70;99.90;;;;;;12360252;28;20047;-36
2024/01/15 11:21:31;;;;;;;98.43;91.63;;;1.80;99.90;;;;;;12402380;28;20070;-36
2024/01/15 11:27:43;;;;;;;96.70;89.97;;;1.80;99.90;;;;;;12417176;28;20061;-35
2024/01/15 11:33:49;;;;;;;97.50;91.00;;;1.80;99.90;;;;;;12415249;28;20099;-36
2024/01/15 11:39:56;;;;;;;102.15;95.35;;;1.80;99.90;;;;;;12368446;28;20521;-36
2024/01/15 11:46:03;;;;;;;101.00;94.32;;;1.90;99.90;;;;;;12362851;28;20046;-35
2024/01/15 11:52:06;;;;;;;94.40;87.80;;;2.00;99.90;;;;;;12344257;28;20047;-35
2024/01/15 11:58:11;;;;;;;98.60;91.63;;;2.00;99.90;;;;;;12380361;28;20051;-35
2024/01/15 12:04:15;;;;;;;97.40;90.50;;;2.00;99.90;;;;;;12343351;28;20494;-35
2024/01/15 12:10:21;;;;;;;99.20;92.38;;;1.90;99.90;;;;;;12342073;28;20050;-36
2024/01/15 12:16:23;;;;;;;95.80;89.37;;;2.00;99.90;;;;;;12351102;28;20054;-36
2024/01/15 12:22:27;;;;;;;93.32;87.03;;;2.00;99.90;;;;;;12420842;28;20058;-36
2024/01/15 12:28:29;;;;;;;90.63;84.63;;;2.00;99.90;;;;;;12436488;28;20057;-36
2024/01/15 12:34:32;;;;;;;89.10;83.28;;;1.80;99.90;;;;;;12380851;28;20145;-35
2024/01/15 12:40:34;;;;;;;96.25;89.70;;;1.90;99.90;;;;;;12375339;28;20181;-36
2024/01/15 12:46:38;;;;;;;92.65;86.35;;;1.80;99.90;;;;;;12345984;28;20454;-35
2024/01/15 12:52:41;;;;;;;90.05;83.93;;;1.90;99.90;;;;;;12365648;28;20419;-36
2024/01/15 12:58:43;;;;;;;85.93;80.43;;;1.90;99.90;;;;;;12350802;28;20057;-35
2024/01/15 13:04:45;;;;;;;85.93;79.78;;;1.90;99.90;;;;;;12373700;28;20042;-35
2024/01/15 13:10:46;;;;;;;91.22;85.30;;;2.00;99.90;;;;;;12363672;28;20042;-35
2024/01/15 13:16:48;;;;;;;94.03;87.82;;;2.00;99.90;;;;;;12363512;28;20387;-35
2024/01/15 13:22:50;;;;;;;96.93;90.45;;;1.90;99.90;;;;;;12409686;28;20089;-35
2024/01/15 13:28:53;;;;;;;113.53;105.75;;;1.80;99.90;;;;;;12355707;28;20105;-35
2024/01/15 13:35:00;;;;;;;103.63;96.68;;;1.80;99.90;;;;;;12398238;28;20062;-35
2024/01/15 13:41:03;;;;;;;105.28;97.53;;;1.70;99.90;;;;;;12412740;28;20157;-35
2024/01/15 13:47:05;;;;;;;96.57;89.97;;;1.70;99.90;;;;;;12364927;28;20145;-35
2024/01/15 13:53:09;;;;;;;98.22;91.70;;;1.80;99.90;;;;;;12358078;28;20081;-35
2024/01/15 13:59:11;;;;;;;114.10;106.32;;;1.80;99.90;;;;;;12386770;28;20043;-35
2024/01/15 14:05:13;;;;;;;109.25;102.05;;;1.80;99.90;;;;;;12400215;28;20050;-35
2024/01/15 14:11:15;;;;;;;108.18;100.82;;;1.80;99.90;;;;;;12357266;28;20081;-35
2024/01/15 14:17:17;;;;;;;106.97;99.75;;;1.80;99.90;;;;;;12371088;28;20054;-34
2024/01/15 14:23:20;;;;;;;122.05;113.75;;;1.80;99.90;;;;;;12370419;28;20057;-35
2024/01/15 14:29:25;;;;;;;124.15;116.05;;;1.60;99.90;;;;;;12400020;28;20484;-34
2024/01/15 14:35:27;;;;;;;137.93;128.63;;;1.60;99.90;;;;;;12412559;28;20054;-36
2024/01/15 14:41:29;;;;;;;128.57;120.28;;;1.50;99.90;;;;;;12377410;28;20391;-36
2024/01/15 14:47:31;;;;;;;128.35;120.20;;;1.50;99.90;;;;;;12370824;28;20050;-36
2024/01/15 14:53:33;;;;;;;133.63;124.63;;;1.50;99.90;;;;;;12360726;28;20521;-36
2024/01/15 14:59:35;;;;;;;142.30;133.15;;;1.40;99.90;;;;;;12361738;28;20100;-35
2024/01/15 15:05:37;;;;;;;149.45;139.55;;;1.50;99.90;;;;;;12355573;28;20128;-35
2024/01/15 15:11:39;;;;;;;144.75;135.30;;;1.30;99.90;;;;;;12363216;28;20043;-36
2024/01/15 15:17:41;;;;;;;137.48;128.85;;;1.30;99.90;;;;;;12393041;28;20133;-35
2024/01/15 15:23:42;;;;;;;117.53;110.22;;;1.30;99.90;;;;;;12407923;28;20075;-36
2024/01/15 15:29:44;;;;;;;112.55;105.50;;;1.40;99.90;;;;;;12386949;28;20047;-35
2024/01/15 15:35:47;;;;;;;107.05;100.45;;;1.30;99.90;;;;;;12378815;28;20188;-36
2024/01/15 15:41:49;;;;;;;106.70;100.00;;;1.30;99.90;;;;;;12377995;28;20080;-34
2024/01/15 15:47:51;;;;;;;99.68;93.57;;;1.40;99.90;;;;;;12367256;28;20085;-36
2024/01/15 15:53:53;;;;;;;100.97;94.68;;;1.40;99.90;;;;;;12372481;28;20044;-36
2024/01/15 15:59:55;;;;;;;95.90;90.00;;;1.40;99.90;;;;;;12406262;28;20054;-36
2024/01/15 16:05:57;;;;;;;92.93;86.72;;;1.50;99.90;;;;;;12436118;28;20125;-36
2024/01/15 16:11:59;;;;;;;96.72;90.43;;;1.40;99.90;;;;;;12350658;28;20488;-36
2024/01/15 16:18:01;;;;;;;95.18;88.45;;;1.40;99.90;;;;;;12347179;28;20061;-35
2024/01/15 16:24:24;;;;;;;97.32;91.03;;;1.40;99.90;;;;;;12480919;28;20051;-35
2024/01/15 16:30:43;;;;;;;98.38;92.18;;;1.40;99.90;;;;;;12366112;28;20061;-35
2024/01/15 16:36:48;;;;;;;95.82;89.82;;;1.40;99.90;;;;;;12346589;28;20046;-35
2024/01/15 16:42:50;;;;;;;92.18;86.35;;;1.40;99.90;;;;;;12377417;28;20046;-34
2024/01/15 16:48:53;;;;;;;96.10;89.85;;;1.30;99.90;;;;;;12353334;28;20137;-35
2024/01/15 16:54:55;;;;;;;96.82;90.55;;;1.30;99.90;;;;;;12376326;28;20050;-34
2024/01/15 17:00:57;;;;;;;93.85;87.93;;;1.30;99.90;;;;;;12359106;28;20046;-35
2024/01/15 17:06:59;;;;;;;133.05;124.57;;;1.40;99.90;;;;;;12349625;28;20120;-35
2024/01/15 17:13:02;;;;;;;405.83;379.30;;;1.30;99.90;;;;;;12362536;28;20073;-35
2024/01/15 17:19:05;;;;;;;468.90;438.75;;;0.90;99.90;;;;;;12355901;28;20757;-35
2024/01/15 17:25:07;;;;;;;445.48;416.38;;;0.90;99.90;;;;;;12365976;28;20524;-35
2024/01/15 17:31:09;;;;;;;324.63;303.98;;;0.90;99.90;;;;;;12397697;28;20552;-35
2024/01/15 17:37:11;;;;;;;255.27;239.27;;;0.90;99.90;;;;;;12344540;28;20055;-35
2024/01/15 17:43:13;;;;;;;144.27;134.85;;;0.80;99.90;;;;;;12359622;28;20081;-35
2024/01/15 17:49:15;;;;;;;135.73;127.13;;;0.90;99.90;;;;;;12372230;28;20073;-35
2024/01/15 17:55:17;;;;;;;137.73;129.15;;;1.00;99.90;;;;;;12377992;28;20486;-35
2024/01/15 18:01:19;;;;;;;146.75;137.48;;;1.00;99.90;;;;;;12361854;28;20406;-35
2024/01/15 18:07:22;;;;;;;158.60;148.73;;;1.00;99.90;;;;;;12362681;28;20092;-35
2024/01/15 18:13:24;;;;;;;152.95;143.15;;;0.90;99.90;;;;;;12344038;28;20511;-36
2024/01/15 18:19:26;;;;;;;136.32;127.70;;;0.90;99.90;;;;;;12345183;28;20082;-35
2024/01/15 18:25:28;;;;;;;128.20;120.07;;;0.90;99.90;;;;;;12475080;28;20059;-35
2024/01/15 18:31:30;;;;;;;134.55;125.80;;;0.90;99.90;;;;;;12341299;28;20738;-34
2024/01/15 18:37:32;;;;;;;125.85;118.00;;;1.00;99.90;;;;;;12355420;28;20434;-35
2024/01/15 18:43:34;;;;;;;121.53;113.93;;;1.10;99.90;;;;;;12359656;28;20095;-35
2024/01/15 18:49:36;;;;;;;139.63;130.23;;;1.10;99.90;;;;;;12334515;28;20418;-35
2024/01/15 18:55:38;;;;;;;147.25;137.27;;;1.10;99.90;;;;;;12357417;28;20058;-35
2024/01/15 19:01:40;;;;;;;158.63;148.13;;;1.00;99.90;;;;;;12348393;28;20062;-35
2024/01/15 19:07:45;;;;;;;148.23;138.82;;;1.00;99.90;;;;;;12359523;28;20054;-35
2024/01/15 19:13:47;;;;;;;133.20;124.53;;;1.00;99.90;;;;;;12356044;28;20462;-35
2024/01/15 19:19:50;;;;;;;124.47;116.45;;;1.10;99.90;;;;;;12373713;28;20188;-34
2024/01/15 19:25:53;;;;;;;125.77;117.37;;;1.10;99.90;;;;;;12348518;28;20046;-35
2024/01/15 19:31:55;;;;;;;115.85;108.25;;;1.10;99.90;;;;;;12406273;28;20294;-35
2024/01/15 19:37:57;;;;;;;106.68;99.80;;;1.10;99.90;;;;;;12349716;28;20042;-37
2024/01/15 19:43:58;;;;;;;102.00;95.45;;;1.10;99.90;;;;;;12357944;28;20448;-34
2024/01/15 19:50:01;;;;;;;100.35;93.85;;;1.10;99.90;;;;;;12368898;28;20054;-35
2024/01/15 19:56:03;;;;;;;100.35;94.15;;;1.10;99.90;;;;;;12384648;28;20141;-35
2024/01/15 20:02:07;;;;;;;95.53;89.43;;;1.20;99.90;;;;;;12364046;28;20050;-35
2024/01/15 20:08:09;;;;;;;99.38;92.88;;;1.20;99.90;;;;;;12365684;28;20046;-35
2024/01/15 20:14:11;;;;;;;99.05;92.68;;;1.10;99.90;;;;;;12363846;28;20046;-35
2024/01/15 20:20:13;;;;;;;92.50;86.65;;;1.20;99.90;;;;;;12367894;28;20160;-35
2024/01/15 20:26:15;;;;;;;97.63;91.40;;;1.10;99.90;;;;;;12356223;28;20498;-35
2024/01/15 20:32:18;;;;;;;91.75;86.05;;;1.10;99.90;;;;;;12402342;28;20061;-34
2024/01/15 20:38:20;;;;;;;101.70;95.20;;;1.20;99.90;;;;;;12361503;28;20046;-35
2024/01/15 20:44:24;;;;;;;96.57;90.57;;;1.10;99.90;;;;;;12374328;28;20095;-35
2024/01/15 20:50:26;;;;;;;96.65;90.43;;;1.20;99.90;;;;;;12352375;28;20058;-35
2024/01/15 20:56:28;;;;;;;97.75;91.80;;;1.10;99.90;;;;;;12353841;28;20062;-35
2024/01/15 21:02:30;;;;;;;96.80;90.85;;;1.10;99.90;;;;;;12377589;28;20133;-35
2024/01/15 21:08:32;;;;;;;97.63;91.43;;;1.10;99.90;;;;;;12364307;28;20062;-35
2024/01/15 21:14:35;;;;;;;93.30;87.65;;;1.10;99.90;;;;;;12366352;28;20566;-35
2024/01/15 21:20:38;;;;;;;93.18;87.45;;;1.10;99.90;;;;;;12403306;28;20090;-35
2024/01/15 21:26:40;;;;;;;90.18;84.32;;;1.10;99.90;;;;;;12434911;28;20043;-35
2024/01/15 21:32:42;;;;;;;115.70;108.13;;;1.10;99.90;;;;;;12357221;28;20533;-35
2024/01/15 21:38:44;;;;;;;108.72;101.63;;;1.10;99.90;;;;;;12360425;28;20042;-35
2024/01/15 21:44:46;;;;;;;113.45;106.22;;;1.10;99.90;;;;;;12348979;28;20061;-35
2024/01/15 21:50:48;;;;;;;95.18;88.72;;;1.10;99.90;;;;;;12350616;28;20928;-34
2024/01/15 21:56:50;;;;;;;95.93;89.72;;;1.10;99.90;;;;;;12377884;28;20612;-35
2024/01/15 22:02:52;;;;;;;108.82;101.68;;;1.10;99.90;;;;;;12347453;28;20142;-35
2024/01/15 22:08:54;;;;;;;110.85;103.93;;;1.10;99.90;;;;;;12375550;28;20403;-35
2024/01/15 22:14:56;;;;;;;106.68;99.90;;;1.00;99.90;;;;;;12349026;28;20051;-35
2024/01/15 22:21:01;;;;;;;100.88;94.18;;;1.00;99.90;;;;;;12366838;28;20051;-35
2024/01/15 22:27:03;;;;;;;104.43;97.72;;;1.10;99.90;;;;;;12385777;28;20046;-35
2024/01/15 22:33:08;;;;;;;102.30;95.72;;;1.10;99.90;;;;;;12359313;28;20065;-35
2024/01/15 22:39:13;;;;;;;106.55;99.57;;;1.10;99.90;;;;;;12365808;28;20110;-34
2024/01/15 22:45:15;;;;;;;106.78;99.68;;;1.10;99.90;;;;;;12351804;28;20058;-35
2024/01/15 22:51:19;;;;;;;113.50;106.10;;;1.00;99.90;;;;;;12365084;28;20414;-35
2024/01/15 22:57:21;;;;;;;107.55;100.75;;;1.00;99.90;;;;;;12402078;28;20050;-35
2024/01/15 23:03:23;;;;;;;116.97;109.55;;;1.00;99.90;;;;;;12368015;28;20043;-35
2024/01/15 23:09:25;;;;;;;112.13;105.07;;;1.00;99.90;;;;;;12359517;28;20051;-36
2024/01/15 23:15:28;;;;;;;114.57;107.47;;;1.00;99.90;;;;;;12341074;28;20134;-35
2024/01/15 23:21:30;;;;;;;105.47;98.57;;;0.90;99.90;;;;;;12386690;28;20467;-35
2024/01/15 23:27:32;;;;;;;111.50;104.50;;;0.90;99.90;;;;;;12350272;28;20752;-34
2024/01/15 23:33:34;;;;;;;123.05;115.35;;;0.90;99.90;;;;;;12397310;28;20095;-36
2024/01/15 23:39:37;;;;;;;120.00;112.53;;;0.80;99.90;;;;;;12371341;28;20046;-36
2024/01/15 23:45:40;;;;;;;113.30;106.20;;;0.70;99.90;;;;;;12349849;28;20487;-36
2024/01/15 23:51:42;;;;;;;111.93;104.83;;;0.60;99.90;;;;;;12365938;28;20050;-34
2024/01/15 23:57:44;;;;;;;114.90;107.70;;;0.60;99.90;;;;;;12352878;28;20061;-35
